sensor_id;sensor_type;location;lat;lon;timestamp;pressure;altitude;pressure_sealevel;temperature;humidity
68399;BME280;56258;52.196;13.868;2022-07-25T00:01:42;101236.41;;;27.53;45.21
68399;BME280;56258;52.196;13.868;2022-07-25T00:04:09;101228.69;;;27.50;45.50
68399;BME280;56258;52.196;13.868;2022-07-25T00:06:40;101236.88;;;27.50;45.22
68399;BME280;56258;52.196;13.868;2022-07-25T00:09:07;101231.41;;;27.50;46.33
68399;BME280;56258;52.196;13.868;2022-07-25T00:11:34;101235.19;;;27.49;45.97
68399;BME280;56258;52.196;13.868;2022-07-25T00:14:01;101232.84;;;27.53;45.84
68399;BME280;56258;52.196;13.868;2022-07-25T00:16:27;101233.06;;;27.51;45.89
68399;BME280;56258;52.196;13.868;2022-07-25T00:18:54;101228.91;;;27.49;45.91
68399;BME280;56258;52.196;13.868;2022-07-25T00:21:21;101228.06;;;27.48;46.08
68399;BME280;56258;52.196;13.868;2022-07-25T00:23:48;101223.00;;;27.52;46.29
68399;BME280;56258;52.196;13.868;2022-07-25T00:26:14;101225.09;;;27.50;46.75
68399;BME280;56258;52.196;13.868;2022-07-25T00:28:42;101215.25;;;27.49;45.91
68399;BME280;56258;52.196;13.868;2022-07-25T00:31:09;101216.13;;;27.43;46.43
68399;BME280;56258;52.196;13.868;2022-07-25T00:33:36;101210.72;;;27.36;46.29
68399;BME280;56258;52.196;13.868;2022-07-25T00:36:03;101206.47;;;27.40;46.53
68399;BME280;56258;52.196;13.868;2022-07-25T00:38:29;101211.72;;;27.42;46.20
68399;BME280;56258;52.196;13.868;2022-07-25T00:40:56;101209.28;;;27.33;46.71
68399;BME280;56258;52.196;13.868;2022-07-25T00:43:23;101195.78;;;27.39;46.10
68399;BME280;56258;52.196;13.868;2022-07-25T00:45:50;101201.03;;;27.40;46.10
68399;BME280;56258;52.196;13.868;2022-07-25T00:48:17;101198.91;;;27.42;46.21
68399;BME280;56258;52.196;13.868;2022-07-25T00:50:44;101202.66;;;27.48;46.00
68399;BME280;56258;52.196;13.868;2022-07-25T00:53:10;101195.78;;;27.39;46.13
68399;BME280;56258;52.196;13.868;2022-07-25T00:55:37;101198.53;;;27.39;45.83
68399;BME280;56258;52.196;13.868;2022-07-25T00:58:04;101194.13;;;27.38;45.79
68399;BME280;56258;52.196;13.868;2022-07-25T01:00:31;101199.44;;;27.32;45.98
68399;BME280;56258;52.196;13.868;2022-07-25T01:02:57;101188.09;;;27.29;46.09
68399;BME280;56258;52.196;13.868;2022-07-25T01:05:24;101183.91;;;27.26;45.97
68399;BME280;56258;52.196;13.868;2022-07-25T01:07:51;101182.47;;;27.24;45.85
68399;BME280;56258;52.196;13.868;2022-07-25T01:10:18;101181.88;;;27.22;45.88
68399;BME280;56258;52.196;13.868;2022-07-25T01:12:53;101180.56;;;27.24;46.14
68399;BME280;56258;52.196;13.868;2022-07-25T01:15:22;101178.72;;;27.18;45.84
68399;BME280;56258;52.196;13.868;2022-07-25T01:17:49;101181.44;;;27.18;45.74
68399;BME280;56258;52.196;13.868;2022-07-25T01:20:21;101172.84;;;27.21;45.77
68399;BME280;56258;52.196;13.868;2022-07-25T01:22:48;101164.00;;;27.19;45.70
68399;BME280;56258;52.196;13.868;2022-07-25T01:25:15;101161.28;;;27.19;45.79
68399;BME280;56258;52.196;13.868;2022-07-25T01:27:43;101158.16;;;27.16;46.24
68399;BME280;56258;52.196;13.868;2022-07-25T01:30:11;101154.59;;;27.15;45.57
68399;BME280;56258;52.196;13.868;2022-07-25T01:32:39;101152.94;;;27.14;46.15
68399;BME280;56258;52.196;13.868;2022-07-25T01:35:06;101151.50;;;27.12;45.60
68399;BME280;56258;52.196;13.868;2022-07-25T01:37:34;101144.97;;;27.13;45.69
68399;BME280;56258;52.196;13.868;2022-07-25T01:40:01;101147.69;;;27.13;45.56
68399;BME280;56258;52.196;13.868;2022-07-25T01:42:28;101144.59;;;27.09;45.54
68399;BME280;56258;52.196;13.868;2022-07-25T01:44:56;101145.22;;;27.04;45.67
68399;BME280;56258;52.196;13.868;2022-07-25T01:47:23;101142.28;;;27.06;45.70
68399;BME280;56258;52.196;13.868;2022-07-25T01:49:50;101137.69;;;27.00;46.23
68399;BME280;56258;52.196;13.868;2022-07-25T01:52:16;101143.56;;;26.97;46.00
68399;BME280;56258;52.196;13.868;2022-07-25T01:54:43;101149.66;;;26.99;45.72
68399;BME280;56258;52.196;13.868;2022-07-25T01:57:10;101142.72;;;26.96;45.94
68399;BME280;56258;52.196;13.868;2022-07-25T01:59:39;101142.13;;;26.94;46.08
68399;BME280;56258;52.196;13.868;2022-07-25T02:02:06;101141.88;;;26.96;46.14
68399;BME280;56258;52.196;13.868;2022-07-25T02:04:34;101143.56;;;26.97;45.85
68399;BME280;56258;52.196;13.868;2022-07-25T02:07:02;101142.13;;;26.94;46.02
68399;BME280;56258;52.196;13.868;2022-07-25T02:09:31;101138.34;;;26.95;45.99
68399;BME280;56258;52.196;13.868;2022-07-25T02:11:57;101128.69;;;26.93;46.18
68399;BME280;56258;52.196;13.868;2022-07-25T02:14:24;101130.38;;;26.94;45.86
68399;BME280;56258;52.196;13.868;2022-07-25T02:16:51;101128.94;;;26.91;45.54
68399;BME280;56258;52.196;13.868;2022-07-25T02:19:18;101124.97;;;26.87;46.44
68399;BME280;56258;52.196;13.868;2022-07-25T02:21:45;101118.47;;;26.88;45.74
68399;BME280;56258;52.196;13.868;2022-07-25T02:24:11;101119.09;;;26.84;45.85
68399;BME280;56258;52.196;13.868;2022-07-25T02:26:38;101123.31;;;26.86;46.11
68399;BME280;56258;52.196;13.868;2022-07-25T02:29:04;101120.78;;;26.85;46.24
68399;BME280;56258;52.196;13.868;2022-07-25T02:31:31;101110.97;;;26.77;46.52
68399;BME280;56258;52.196;13.868;2022-07-25T02:33:58;101113.94;;;26.75;45.92
68399;BME280;56258;52.196;13.868;2022-07-25T02:36:24;101109.53;;;26.74;46.31
68399;BME280;56258;52.196;13.868;2022-07-25T02:38:51;101107.19;;;26.78;45.75
68399;BME280;56258;52.196;13.868;2022-07-25T02:41:18;101101.91;;;26.83;45.56
68399;BME280;56258;52.196;13.868;2022-07-25T02:43:44;101100.69;;;26.79;45.58
68399;BME280;56258;52.196;13.868;2022-07-25T02:46:11;101098.78;;;26.80;46.02
68399;BME280;56258;52.196;13.868;2022-07-25T02:48:38;101099.84;;;26.79;46.29
68399;BME280;56258;52.196;13.868;2022-07-25T02:51:04;101104.03;;;26.81;45.61
68399;BME280;56258;52.196;13.868;2022-07-25T02:53:31;101104.63;;;26.83;46.18
68399;BME280;56258;52.196;13.868;2022-07-25T02:56:18;101095.22;;;26.79;45.80
68399;BME280;56258;52.196;13.868;2022-07-25T02:58:46;101098.19;;;26.78;45.81
68399;BME280;56258;52.196;13.868;2022-07-25T03:01:13;101090.84;;;26.71;45.67
68399;BME280;56258;52.196;13.868;2022-07-25T03:03:40;101095.69;;;26.69;46.01
68399;BME280;56258;52.196;13.868;2022-07-25T03:06:07;101093.78;;;26.77;45.67
68399;BME280;56258;52.196;13.868;2022-07-25T03:08:34;101089.16;;;26.77;45.60
68399;BME280;56258;52.196;13.868;2022-07-25T03:11:01;101088.47;;;26.82;46.07
68399;BME280;56258;52.196;13.868;2022-07-25T03:13:27;101082.56;;;26.85;45.79
68399;BME280;56258;52.196;13.868;2022-07-25T03:15:54;101086.81;;;26.81;45.45
68399;BME280;56258;52.196;13.868;2022-07-25T03:18:21;101079.09;;;26.78;45.62
68399;BME280;56258;52.196;13.868;2022-07-25T03:20:48;101079.69;;;26.80;45.46
68399;BME280;56258;52.196;13.868;2022-07-25T03:23:14;101077.56;;;26.82;45.38
68399;BME280;56258;52.196;13.868;2022-07-25T03:25:41;101072.56;;;26.79;45.74
68399;BME280;56258;52.196;13.868;2022-07-25T03:28:08;101071.50;;;26.80;45.85
68399;BME280;56258;52.196;13.868;2022-07-25T03:30:34;101068.94;;;26.85;45.43
68399;BME280;56258;52.196;13.868;2022-07-25T03:33:01;101062.88;;;26.83;45.74
68399;BME280;56258;52.196;13.868;2022-07-25T03:35:27;101061.44;;;26.80;45.34
68399;BME280;56258;52.196;13.868;2022-07-25T03:37:54;101055.41;;;26.71;45.82
68399;BME280;56258;52.196;13.868;2022-07-25T03:40:21;101049.13;;;26.71;46.06
68399;BME280;56258;52.196;13.868;2022-07-25T03:42:47;101044.28;;;26.73;45.23
68399;BME280;56258;52.196;13.868;2022-07-25T03:45:14;101042.00;;;26.70;45.71
68399;BME280;56258;52.196;13.868;2022-07-25T03:47:42;101041.38;;;26.68;45.62
68399;BME280;56258;52.196;13.868;2022-07-25T03:50:09;101039.72;;;26.67;45.69
68399;BME280;56258;52.196;13.868;2022-07-25T03:52:35;101042.00;;;26.70;45.31
68399;BME280;56258;52.196;13.868;2022-07-25T03:55:08;101044.34;;;26.66;45.27
68399;BME280;56258;52.196;13.868;2022-07-25T03:57:35;101038.69;;;26.61;46.19
68399;BME280;56258;52.196;13.868;2022-07-25T04:00:06;101037.69;;;26.56;45.66
68399;BME280;56258;52.196;13.868;2022-07-25T04:02:35;101037.84;;;26.61;46.12
68399;BME280;56258;52.196;13.868;2022-07-25T04:05:04;101039.59;;;26.55;45.93
68399;BME280;56258;52.196;13.868;2022-07-25T04:07:31;101034.97;;;26.56;45.63
68399;BME280;56258;52.196;13.868;2022-07-25T04:09:58;101031.63;;;26.54;45.99
68399;BME280;56258;52.196;13.868;2022-07-25T04:12:25;101024.91;;;26.56;46.02
68399;BME280;56258;52.196;13.868;2022-07-25T04:14:52;101023.84;;;26.57;45.89
68399;BME280;56258;52.196;13.868;2022-07-25T04:17:18;101022.31;;;26.61;45.31
68399;BME280;56258;52.196;13.868;2022-07-25T04:19:46;101018.53;;;26.62;45.82
68399;BME280;56258;52.196;13.868;2022-07-25T04:22:13;101019.25;;;26.51;46.11
68399;BME280;56258;52.196;13.868;2022-07-25T04:24:40;101012.81;;;26.45;46.03
68399;BME280;56258;52.196;13.868;2022-07-25T04:27:06;101011.97;;;26.45;46.19
68399;BME280;56258;52.196;13.868;2022-07-25T04:29:33;101006.03;;;26.55;45.68
68399;BME280;56258;52.196;13.868;2022-07-25T04:32:00;101003.69;;;26.58;45.32
68399;BME280;56258;52.196;13.868;2022-07-25T04:34:27;101008.78;;;26.48;46.11
68399;BME280;56258;52.196;13.868;2022-07-25T04:36:53;101002.06;;;26.51;45.52
68399;BME280;56258;52.196;13.868;2022-07-25T04:39:20;100997.66;;;26.50;45.57
68399;BME280;56258;52.196;13.868;2022-07-25T04:41:46;100993.88;;;26.51;45.55
68399;BME280;56258;52.196;13.868;2022-07-25T04:44:13;100997.72;;;26.43;45.61
68399;BME280;56258;52.196;13.868;2022-07-25T04:46:40;100995.66;;;26.38;45.88
68399;BME280;56258;52.196;13.868;2022-07-25T04:49:07;100996.59;;;26.51;45.81
68399;BME280;56258;52.196;13.868;2022-07-25T04:51:34;100995.97;;;26.55;46.13
68399;BME280;56258;52.196;13.868;2022-07-25T04:54:00;100995.84;;;26.68;46.01
68399;BME280;56258;52.196;13.868;2022-07-25T04:56:27;100999.03;;;26.90;45.54
68399;BME280;56258;52.196;13.868;2022-07-25T04:58:54;100986.16;;;26.97;46.07
68399;BME280;56258;52.196;13.868;2022-07-25T05:01:21;100989.09;;;26.96;46.02
68399;BME280;56258;52.196;13.868;2022-07-25T05:03:48;100988.25;;;27.02;45.79
68399;BME280;56258;52.196;13.868;2022-07-25T05:06:16;100982.09;;;27.07;45.35
68399;BME280;56258;52.196;13.868;2022-07-25T05:08:43;100984.59;;;27.08;45.01
68399;BME280;56258;52.196;13.868;2022-07-25T05:11:10;100985.84;;;27.12;44.72
68399;BME280;56258;52.196;13.868;2022-07-25T05:13:36;100983.72;;;27.14;45.32
68399;BME280;56258;52.196;13.868;2022-07-25T05:16:03;100974.31;;;27.10;44.79
68399;BME280;56258;52.196;13.868;2022-07-25T05:18:32;100968.03;;;27.10;44.99
68399;BME280;56258;52.196;13.868;2022-07-25T05:20:59;100969.94;;;27.09;45.20
68399;BME280;56258;52.196;13.868;2022-07-25T05:23:26;100974.16;;;27.05;45.08
68399;BME280;56258;52.196;13.868;2022-07-25T05:25:52;100961.75;;;27.09;44.53
68399;BME280;56258;52.196;13.868;2022-07-25T05:28:19;100964.91;;;27.06;45.10
68399;BME280;56258;52.196;13.868;2022-07-25T05:30:46;100961.09;;;27.07;44.69
68399;BME280;56258;52.196;13.868;2022-07-25T05:33:13;100955.28;;;27.03;44.80
68399;BME280;56258;52.196;13.868;2022-07-25T05:35:40;100957.78;;;27.05;44.57
68399;BME280;56258;52.196;13.868;2022-07-25T05:38:06;100952.56;;;27.03;44.90
68399;BME280;56258;52.196;13.868;2022-07-25T05:40:33;100946.25;;;27.03;44.83
68399;BME280;56258;52.196;13.868;2022-07-25T05:43:00;100939.13;;;27.02;44.58
68399;BME280;56258;52.196;13.868;2022-07-25T05:45:29;100938.06;;;27.03;44.88
68399;BME280;56258;52.196;13.868;2022-07-25T05:47:56;100940.81;;;27.03;44.57
68399;BME280;56258;52.196;13.868;2022-07-25T05:50:23;100931.56;;;27.04;44.49
68399;BME280;56258;52.196;13.868;2022-07-25T05:52:50;100938.06;;;27.03;45.13
68399;BME280;56258;52.196;13.868;2022-07-25T05:55:17;100930.94;;;27.02;44.76
68399;BME280;56258;52.196;13.868;2022-07-25T05:57:43;100925.25;;;27.03;44.91
68399;BME280;56258;52.196;13.868;2022-07-25T06:00:10;100930.50;;;27.05;44.54
68399;BME280;56258;52.196;13.868;2022-07-25T06:02:37;100933.81;;;27.07;44.51
68399;BME280;56258;52.196;13.868;2022-07-25T06:05:04;100923.78;;;27.01;44.30
68399;BME280;56258;52.196;13.868;2022-07-25T06:07:31;100928.00;;;26.97;44.48
68399;BME280;56258;52.196;13.868;2022-07-25T06:09:57;100919.47;;;26.93;44.84
68399;BME280;56258;52.196;13.868;2022-07-25T06:12:24;100916.97;;;26.92;45.06
68399;BME280;56258;52.196;13.868;2022-07-25T06:14:51;100915.44;;;26.96;44.88
68399;BME280;56258;52.196;13.868;2022-07-25T06:17:18;100908.09;;;26.96;44.32
68399;BME280;56258;52.196;13.868;2022-07-25T06:19:45;100909.75;;;26.97;44.42
68399;BME280;56258;52.196;13.868;2022-07-25T06:22:12;100905.31;;;27.03;44.12
68399;BME280;56258;52.196;13.868;2022-07-25T06:24:40;100902.75;;;27.08;44.38
68399;BME280;56258;52.196;13.868;2022-07-25T06:27:06;100905.31;;;27.03;44.03
68399;BME280;56258;52.196;13.868;2022-07-25T06:29:34;100905.94;;;27.05;44.10
68399;BME280;56258;52.196;13.868;2022-07-25T06:32:00;100902.59;;;27.03;43.94
68399;BME280;56258;52.196;13.868;2022-07-25T06:34:27;100901.78;;;27.02;44.35
68399;BME280;56258;52.196;13.868;2022-07-25T06:36:54;100902.19;;;26.99;44.08
68399;BME280;56258;52.196;13.868;2022-07-25T06:39:23;100900.72;;;26.97;44.66
68399;BME280;56258;52.196;13.868;2022-07-25T06:41:50;100890.88;;;26.96;44.09
68399;BME280;56258;52.196;13.868;2022-07-25T06:44:17;100894.31;;;26.91;44.15
68399;BME280;56258;52.196;13.868;2022-07-25T06:46:44;100881.25;;;26.93;44.58
68399;BME280;56258;52.196;13.868;2022-07-25T06:49:10;100887.56;;;26.94;44.28
68399;BME280;56258;52.196;13.868;2022-07-25T06:51:37;100873.44;;;26.97;44.60
68399;BME280;56258;52.196;13.868;2022-07-25T06:54:04;100880.59;;;26.98;44.01
68399;BME280;56258;52.196;13.868;2022-07-25T06:56:31;100875.81;;;26.93;44.71
68399;BME280;56258;52.196;13.868;2022-07-25T06:58:59;100863.47;;;26.91;44.57
68399;BME280;56258;52.196;13.868;2022-07-25T07:01:26;100870.34;;;26.93;44.09
68399;BME280;56258;52.196;13.868;2022-07-25T07:03:53;100864.75;;;26.88;44.65
68399;BME280;56258;52.196;13.868;2022-07-25T07:06:20;100859.22;;;26.95;44.75
68399;BME280;56258;52.196;13.868;2022-07-25T07:08:46;100852.09;;;26.94;43.98
68399;BME280;56258;52.196;13.868;2022-07-25T07:11:13;100854.59;;;26.95;44.39
68399;BME280;56258;52.196;13.868;2022-07-25T07:13:41;100854.16;;;26.98;44.48
68399;BME280;56258;52.196;13.868;2022-07-25T07:16:08;100847.47;;;26.94;43.87
68399;BME280;56258;52.196;13.868;2022-07-25T07:18:34;100852.84;;;27.01;44.27
68399;BME280;56258;52.196;13.868;2022-07-25T07:21:03;100841.53;;;26.97;44.03
68399;BME280;56258;52.196;13.868;2022-07-25T07:23:31;100843.22;;;26.98;43.77
68399;BME280;56258;52.196;13.868;2022-07-25T07:25:58;100835.25;;;26.97;44.19
68399;BME280;56258;52.196;13.868;2022-07-25T07:28:25;100830.25;;;26.94;43.86
68399;BME280;56258;52.196;13.868;2022-07-25T07:30:52;100831.31;;;26.93;44.27
68399;BME280;56258;52.196;13.868;2022-07-25T07:33:38;100831.91;;;26.95;43.93
68399;BME280;56258;52.196;13.868;2022-07-25T07:36:05;100829.44;;;26.93;43.57
68399;BME280;56258;52.196;13.868;2022-07-25T07:38:32;100832.53;;;26.97;44.31
68399;BME280;56258;52.196;13.868;2022-07-25T07:40:59;100822.91;;;26.94;44.22
68399;BME280;56258;52.196;13.868;2022-07-25T07:43:26;100826.47;;;26.95;44.26
68399;BME280;56258;52.196;13.868;2022-07-25T07:45:56;100829.78;;;26.97;43.91
68399;BME280;56258;52.196;13.868;2022-07-25T07:48:27;100818.88;;;26.97;44.23
68399;BME280;56258;52.196;13.868;2022-07-25T07:50:54;100819.50;;;26.99;44.41
68399;BME280;56258;52.196;13.868;2022-07-25T07:53:21;100814.66;;;27.01;44.10
68399;BME280;56258;52.196;13.868;2022-07-25T07:55:47;100815.28;;;27.03;43.80
68399;BME280;56258;52.196;13.868;2022-07-25T07:58:20;100807.09;;;27.03;43.41
68399;BME280;56258;52.196;13.868;2022-07-25T08:00:48;100807.09;;;27.03;43.58
68399;BME280;56258;52.196;13.868;2022-07-25T08:03:19;100806.25;;;27.02;44.03
68399;BME280;56258;52.196;13.868;2022-07-25T08:05:47;100810.44;;;27.05;44.38
68399;BME280;56258;52.196;13.868;2022-07-25T08:08:14;100808.69;;;27.11;43.83
68399;BME280;56258;52.196;13.868;2022-07-25T08:10:45;100801.78;;;27.08;43.61
68399;BME280;56258;52.196;13.868;2022-07-25T08:13:23;100801.19;;;27.06;43.80
68399;BME280;56258;52.196;13.868;2022-07-25T08:15:53;100798.44;;;27.06;43.67
68399;BME280;56258;52.196;13.868;2022-07-25T08:18:20;100798.59;;;27.11;44.00
68399;BME280;56258;52.196;13.868;2022-07-25T08:20:47;100800.94;;;27.08;43.72
68399;BME280;56258;52.196;13.868;2022-07-25T08:23:14;100795.06;;;27.11;43.41
68399;BME280;56258;52.196;13.868;2022-07-25T08:25:41;100798.97;;;27.15;43.93
68399;BME280;56258;52.196;13.868;2022-07-25T08:28:09;100803.53;;;27.21;43.78
68399;BME280;56258;52.196;13.868;2022-07-25T08:30:36;100802.22;;;27.23;43.36
68399;BME280;56258;52.196;13.868;2022-07-25T08:33:06;100806.63;;;27.24;43.17
68399;BME280;56258;52.196;13.868;2022-07-25T08:35:36;100798.44;;;27.24;43.32
68399;BME280;56258;52.196;13.868;2022-07-25T08:38:03;100806.63;;;27.24;43.70
68399;BME280;56258;52.196;13.868;2022-07-25T08:40:31;100798.56;;;27.29;43.57
68399;BME280;56258;52.196;13.868;2022-07-25T08:42:58;100806.31;;;27.32;43.68
68399;BME280;56258;52.196;13.868;2022-07-25T08:45:26;100796.59;;;27.37;43.54
68399;BME280;56258;52.196;13.868;2022-07-25T08:47:55;100799.66;;;27.40;43.11
68399;BME280;56258;52.196;13.868;2022-07-25T08:50:25;100792.47;;;27.46;43.28
68399;BME280;56258;52.196;13.868;2022-07-25T08:52:52;100803.97;;;27.48;43.30
68399;BME280;56258;52.196;13.868;2022-07-25T08:55:39;100787.28;;;27.56;42.89
68399;BME280;56258;52.196;13.868;2022-07-25T08:58:06;100786.66;;;27.54;42.85
68399;BME280;56258;52.196;13.868;2022-07-25T09:00:32;100784.06;;;27.59;42.88
68399;BME280;56258;52.196;13.868;2022-07-25T09:03:01;100786.94;;;27.64;42.96
68399;BME280;56258;52.196;13.868;2022-07-25T09:05:29;100782.09;;;27.66;42.72
68399;BME280;56258;52.196;13.868;2022-07-25T09:08:10;100775.94;;;27.71;42.72
68399;BME280;56258;52.196;13.868;2022-07-25T09:10:38;100773.22;;;27.71;42.52
68399;BME280;56258;52.196;13.868;2022-07-25T09:13:12;100776.41;;;27.68;42.88
68399;BME280;56258;52.196;13.868;2022-07-25T09:15:50;100763.72;;;27.73;42.47
68399;BME280;56258;52.196;13.868;2022-07-25T09:18:24;100775.22;;;27.75;42.39
68399;BME280;56258;52.196;13.868;2022-07-25T09:20:55;100761.97;;;27.79;42.30
68399;BME280;56258;52.196;13.868;2022-07-25T09:23:35;100758.63;;;28.00;41.87
68399;BME280;56258;52.196;13.868;2022-07-25T09:26:12;100743.19;;;28.06;41.86
68399;BME280;56258;52.196;13.868;2022-07-25T09:28:44;100743.31;;;28.11;41.69
68399;BME280;56258;52.196;13.868;2022-07-25T09:31:12;100744.88;;;28.07;41.63
68399;BME280;56258;52.196;13.868;2022-07-25T09:33:52;100738.91;;;28.10;42.05
68399;BME280;56258;52.196;13.868;2022-07-25T09:36:22;100735.59;;;28.08;42.08
68399;BME280;56258;52.196;13.868;2022-07-25T09:38:59;100731.44;;;28.05;41.91
68399;BME280;56258;52.196;13.868;2022-07-25T09:41:39;100726.81;;;28.06;41.90
68399;BME280;56258;52.196;13.868;2022-07-25T09:44:17;100725.63;;;28.13;41.83
68399;BME280;56258;52.196;13.868;2022-07-25T09:46:44;100715.53;;;28.14;41.66
68399;BME280;56258;52.196;13.868;2022-07-25T09:49:11;100715.53;;;28.14;41.81
68399;BME280;56258;52.196;13.868;2022-07-25T09:51:41;100709.22;;;28.13;41.52
68399;BME280;56258;52.196;13.868;2022-07-25T09:54:08;100702.56;;;28.09;41.76
68399;BME280;56258;52.196;13.868;2022-07-25T09:56:35;100705.03;;;28.11;41.95
68399;BME280;56258;52.196;13.868;2022-07-25T09:59:03;100691.75;;;28.14;41.65
68399;BME280;56258;52.196;13.868;2022-07-25T10:01:41;100684.25;;;28.10;41.97
68399;BME280;56258;52.196;13.868;2022-07-25T10:04:18;100676.19;;;28.15;41.70
68399;BME280;56258;52.196;13.868;2022-07-25T10:07:02;100676.63;;;28.12;42.15
68399;BME280;56258;52.196;13.868;2022-07-25T10:09:31;100670.34;;;28.11;41.95
68399;BME280;56258;52.196;13.868;2022-07-25T10:12:05;100670.00;;;28.08;41.54
68399;BME280;56258;52.196;13.868;2022-07-25T10:14:33;100668.91;;;28.20;41.67
68399;BME280;56258;52.196;13.868;2022-07-25T10:17:00;100661.44;;;28.16;41.86
68399;BME280;56258;52.196;13.868;2022-07-25T10:22:14;100648.09;;;28.43;41.38
68399;BME280;56258;52.196;13.868;2022-07-25T10:24:45;100654.28;;;28.50;41.05
68399;BME280;56258;52.196;13.868;2022-07-25T10:27:20;100649.69;;;28.67;40.79
68399;BME280;56258;52.196;13.868;2022-07-25T10:29:53;100645.72;;;28.75;40.64
68399;BME280;56258;52.196;13.868;2022-07-25T10:32:25;100631.81;;;28.76;40.54
68399;BME280;56258;52.196;13.868;2022-07-25T10:34:57;100632.38;;;28.78;40.75
68399;BME280;56258;52.196;13.868;2022-07-25T10:37:27;100620.59;;;28.90;40.25
68399;BME280;56258;52.196;13.868;2022-07-25T10:39:54;100627.16;;;29.05;40.28
68399;BME280;56258;52.196;13.868;2022-07-25T10:42:22;100620.38;;;29.08;40.12
68399;BME280;56258;52.196;13.868;2022-07-25T10:44:53;100619.22;;;29.21;39.50
68399;BME280;56258;52.196;13.868;2022-07-25T10:47:26;100611.50;;;29.18;39.89
68399;BME280;56258;52.196;13.868;2022-07-25T10:50:00;100606.75;;;28.96;40.04
68399;BME280;56258;52.196;13.868;2022-07-25T10:52:57;100610.31;;;29.14;39.68
68399;BME280;56258;52.196;13.868;2022-07-25T10:55:27;100594.06;;;29.24;39.94
68399;BME280;56258;52.196;13.868;2022-07-25T10:58:03;100596.16;;;29.33;39.66
68399;BME280;56258;52.196;13.868;2022-07-25T11:00:47;100597.97;;;29.28;39.39
68399;BME280;56258;52.196;13.868;2022-07-25T11:03:16;100580.78;;;29.16;40.06
68399;BME280;56258;52.196;13.868;2022-07-25T11:05:45;100574.16;;;29.45;39.43
68399;BME280;56258;52.196;13.868;2022-07-25T11:08:12;100573.59;;;29.43;39.41
68399;BME280;56258;52.196;13.868;2022-07-25T11:10:51;100579.00;;;29.55;39.44
68399;BME280;56258;52.196;13.868;2022-07-25T11:13:19;100570.94;;;29.48;39.61
68399;BME280;56258;52.196;13.868;2022-07-25T11:15:46;100573.06;;;29.46;39.46
68399;BME280;56258;52.196;13.868;2022-07-25T11:18:13;100560.72;;;29.27;39.85
68399;BME280;56258;52.196;13.868;2022-07-25T11:20:40;100572.19;;;29.41;39.40
68399;BME280;56258;52.196;13.868;2022-07-25T11:23:06;100565.66;;;29.80;38.66
68399;BME280;56258;52.196;13.868;2022-07-25T11:25:33;100566.28;;;29.66;38.85
68399;BME280;56258;52.196;13.868;2022-07-25T11:28:00;100558.25;;;29.81;39.01
68399;BME280;56258;52.196;13.868;2022-07-25T11:30:28;100554.25;;;30.32;37.60
68399;BME280;56258;52.196;13.868;2022-07-25T11:32:57;100544.09;;;30.33;37.69
68399;BME280;56258;52.196;13.868;2022-07-25T11:35:31;100537.06;;;30.64;36.71
68399;BME280;56258;52.196;13.868;2022-07-25T11:37:59;100538.75;;;31.02;36.88
68399;BME280;56258;52.196;13.868;2022-07-25T11:40:28;100521.50;;;30.69;36.41
68399;BME280;56258;52.196;13.868;2022-07-25T11:42:58;100523.94;;;31.35;35.83
68399;BME280;56258;52.196;13.868;2022-07-25T11:45:30;100518.91;;;31.69;35.21
68399;BME280;56258;52.196;13.868;2022-07-25T11:48:07;100519.03;;;31.84;34.82
68399;BME280;56258;52.196;13.868;2022-07-25T11:50:37;100518.13;;;31.74;34.92
68399;BME280;56258;52.196;13.868;2022-07-25T11:53:10;100509.09;;;31.78;34.95
68399;BME280;56258;52.196;13.868;2022-07-25T11:55:40;100518.75;;;31.86;34.82
68399;BME280;56258;52.196;13.868;2022-07-25T11:58:09;100505.16;;;31.69;35.12
68399;BME280;56258;52.196;13.868;2022-07-25T12:00:44;100504.25;;;31.11;36.54
68399;BME280;56258;52.196;13.868;2022-07-25T12:03:13;100502.16;;;31.23;36.13
68399;BME280;56258;52.196;13.868;2022-07-25T12:05:46;100497.47;;;31.66;35.16
68399;BME280;56258;52.196;13.868;2022-07-25T12:08:18;100490.41;;;31.80;34.94
68399;BME280;56258;52.196;13.868;2022-07-25T12:10:47;100488.09;;;31.62;35.52
68399;BME280;56258;52.196;13.868;2022-07-25T12:13:22;100491.66;;;31.15;35.90
68399;BME280;56258;52.196;13.868;2022-07-25T12:15:50;100491.91;;;31.14;36.36
68399;BME280;56258;52.196;13.868;2022-07-25T12:18:17;100483.06;;;31.49;35.76
68399;BME280;56258;52.196;13.868;2022-07-25T12:20:44;100478.13;;;31.46;35.97
68399;BME280;56258;52.196;13.868;2022-07-25T12:23:12;100478.38;;;31.44;35.94
68399;BME280;56258;52.196;13.868;2022-07-25T12:25:41;100466.06;;;31.52;35.92
68399;BME280;56258;52.196;13.868;2022-07-25T12:28:08;100469.88;;;31.46;35.90
68399;BME280;56258;52.196;13.868;2022-07-25T12:30:37;100462.19;;;31.43;35.65
68399;BME280;56258;52.196;13.868;2022-07-25T12:33:04;100466.34;;;31.08;36.03
68399;BME280;56258;52.196;13.868;2022-07-25T12:35:31;100456.47;;;30.75;36.92
68399;BME280;56258;52.196;13.868;2022-07-25T12:37:59;100456.78;;;31.16;36.22
68399;BME280;56258;52.196;13.868;2022-07-25T12:40:25;100445.63;;;31.27;35.89
68399;BME280;56258;52.196;13.868;2022-07-25T12:42:53;100437.97;;;30.97;36.81
68399;BME280;56258;52.196;13.868;2022-07-25T12:45:19;100433.66;;;31.06;36.60
68399;BME280;56258;52.196;13.868;2022-07-25T12:47:47;100437.13;;;31.34;36.12
68399;BME280;56258;52.196;13.868;2022-07-25T12:50:15;100426.47;;;31.43;35.95